Massamagrell, Spain
Current Conditions -  °F | °C
As of 8:00 PM on Thursday 30 Oct 2014 (Local Time) from LEBT Reporting Station
Few Clouds Few Clouds  
Wind Chill: 64°   Ceiling: Unl
Heat Index: 64°   Visibility: 6mi
Dew Point: 61°   Wind: 1mph
Humidity: 88%   Direction: NA
Pressure: 30.21"   Gusts: NA
Location:  39.57°N, 0.33°W
Report Text: LEBT 301900Z AUTO VRB01KT 9999 // FEW010/// 18/16 Q1023
Loading
Personal Weather Stations






























Interactive Weather Map
Tropical Storm Tracking
New forecast layout! Learn more

10-Day Weather Forecast

Advertisements
Track Severe Weather on mobile